Time;durP1;ratioP1;P1;durP2;ratioP2;P2;SDS_P1;SDS_P2;PMS_P1;PMS_P2;Temp;Humidity;BMP_temperature;BMP_pressure;BME280_temperature;BME280_humidity;BME280_pressure;Samples;Min_cycle;Max_cycle;Signal;HPM_P1;HPM_P2
2023/02/02 00:04:45;;;;;;;16.07;8.27;;;5.10;99.90;;;;;;2615397;54;20423;-77
2023/02/02 00:10:33;;;;;;;10.57;6.17;;;5.10;99.90;;;;;;2615926;39;20530;-77
2023/02/02 00:16:27;;;;;;;12.03;6.17;;;5.10;99.90;;;;;;2616490;39;20547;-76
2023/02/02 00:22:15;;;;;;;17.43;11.77;;;5.20;99.90;;;;;;2615530;54;20378;-78
2023/02/02 00:28:03;;;;;;;8.77;5.27;;;5.30;99.90;;;;;;2615489;54;20375;-77
2023/02/02 00:33:53;;;;;;;15.00;6.30;;;5.60;99.90;;;;;;2615517;54;20409;-77
2023/02/02 00:39:41;;;;;;;15.83;4.63;;;5.60;99.90;;;;;;2615355;54;20458;-77
2023/02/02 00:42:47;;;;;;;9.40;5.43;;;5.70;99.90;;;;;;2615319;54;20403;-77
2023/02/02 00:45:16;;;;;;;8.63;5.10;;;5.70;99.90;;;;;;2614619;47;20174;-76
2023/02/02 00:51:04;;;;;;;11.33;5.10;;;5.80;99.90;;;;;;2614843;54;20426;-78
2023/02/02 00:54:24;;;;;;;10.67;5.00;;;5.80;99.90;;;;;;2614998;47;20949;-78
2023/02/02 00:56:50;;;;;;;16.83;5.00;;;5.90;99.90;;;;;;2615610;39;20453;-77
2023/02/02 01:02:38;;;;;;;9.60;3.40;;;5.90;99.90;;;;;;2615020;54;20151;-78
2023/02/02 01:08:25;;;;;;;10.57;3.30;;;6.00;99.90;;;;;;2614278;54;20751;-78
2023/02/02 01:14:13;;;;;;;7.87;2.70;;;6.10;99.90;;;;;;2615216;54;20158;-77
2023/02/02 01:20:01;;;;;;;11.97;4.40;;;6.10;99.90;;;;;;2615288;54;20145;-77
2023/02/02 01:26:00;;;;;;;8.73;3.33;;;6.10;99.90;;;;;;2615612;54;20165;-76
2023/02/02 01:31:48;;;;;;;9.63;4.60;;;6.20;99.90;;;;;;2615334;54;20504;-77
2023/02/02 01:37:37;;;;;;;16.30;5.43;;;6.20;99.90;;;;;;2615184;39;20638;-77
2023/02/02 01:49:54;;;;;;;11.73;6.30;;;6.30;99.90;;;;;;2615187;54;20390;-76
2023/02/02 01:59:05;;;;;;;13.77;7.50;;;6.50;99.90;;;;;;2615588;46;20406;-77
2023/02/02 02:04:54;;;;;;;19.47;6.40;;;6.60;99.90;;;;;;2614403;54;20411;-78
2023/02/02 02:10:41;;;;;;;24.77;7.97;;;6.60;99.90;;;;;;2614545;54;20415;-75
2023/02/02 02:30:09;;;;;;;22.37;9.57;;;6.80;99.90;;;;;;2613465;54;20382;-76
2023/02/02 02:42:19;;;;;;;15.80;8.43;;;6.80;99.90;;;;;;2614471;54;20511;-76
2023/02/02 02:48:09;;;;;;;14.90;7.00;;;6.80;99.90;;;;;;2615561;54;20439;-76
2023/02/02 02:53:57;;;;;;;18.10;7.87;;;6.80;99.90;;;;;;2615825;54;21086;-75
2023/02/02 02:59:52;;;;;;;14.77;6.80;;;6.80;99.90;;;;;;2615042;39;20553;-77
2023/02/02 03:12:11;;;;;;;15.30;4.97;;;6.70;99.90;;;;;;2615469;54;20392;-76
2023/02/02 03:17:59;;;;;;;10.40;3.50;;;6.50;99.90;;;;;;2616006;54;20135;-76
2023/02/02 03:23:47;;;;;;;6.47;3.80;;;6.50;99.90;;;;;;2615531;54;20492;-76
2023/02/02 03:29:35;;;;;;;9.20;3.63;;;6.50;99.90;;;;;;2614108;54;20866;-76
2023/02/02 03:35:24;;;;;;;6.03;3.80;;;6.40;99.90;;;;;;2616216;39;20788;-76
2023/02/02 03:41:12;;;;;;;16.80;3.83;;;6.50;99.90;;;;;;2615229;54;20406;-76
2023/02/02 03:47:00;;;;;;;16.00;4.57;;;6.50;99.90;;;;;;2615654;54;20660;-77
2023/02/02 03:52:48;;;;;;;8.83;4.80;;;6.50;99.90;;;;;;2616177;39;20507;-76
2023/02/02 03:58:35;;;;;;;12.10;4.77;;;6.40;99.90;;;;;;2615508;46;20153;-77
2023/02/02 04:04:23;;;;;;;14.37;6.30;;;6.50;99.90;;;;;;2614757;54;20202;-77
2023/02/02 04:10:11;;;;;;;8.83;5.40;;;6.50;99.90;;;;;;2614580;54;20154;-77
2023/02/02 04:15:59;;;;;;;13.00;5.70;;;6.50;99.90;;;;;;2615599;54;20648;-77
2023/02/02 04:21:47;;;;;;;12.90;7.63;;;6.50;99.90;;;;;;2613801;54;20383;-77
2023/02/02 04:27:35;;;;;;;14.63;8.77;;;6.50;99.90;;;;;;2614541;54;20671;-77
2023/02/02 04:33:25;;;;;;;19.30;11.30;;;6.60;99.90;;;;;;2614902;54;20118;-77
2023/02/02 04:39:13;;;;;;;28.93;13.10;;;6.60;99.90;;;;;;2615120;54;20952;-77
2023/02/02 04:45:01;;;;;;;35.50;17.57;;;6.60;99.90;;;;;;2614966;54;20146;-77
2023/02/02 04:50:48;;;;;;;36.23;17.73;;;6.70;99.90;;;;;;2614610;54;20122;-77
2023/02/02 04:56:36;;;;;;;35.50;17.73;;;6.90;99.90;;;;;;2614365;54;20736;-76
2023/02/02 05:02:24;;;;;;;29.80;17.10;;;6.90;99.90;;;;;;2613486;54;20162;-78
2023/02/02 05:08:12;;;;;;;22.57;14.07;;;7.10;99.90;;;;;;2614365;54;20494;-76
2023/02/02 05:14:00;;;;;;;21.57;9.33;;;7.00;99.90;;;;;;2615041;54;20129;-78
2023/02/02 05:19:48;;;;;;;22.13;10.53;;;7.10;99.90;;;;;;2614525;54;20122;-76
2023/02/02 05:25:35;;;;;;;15.00;8.30;;;7.30;99.90;;;;;;2614857;54;20138;-77
2023/02/02 05:31:23;;;;;;;26.87;10.23;;;7.20;99.90;;;;;;2615056;54;20724;-76
2023/02/02 05:37:11;;;;;;;22.07;7.53;;;7.30;99.90;;;;;;2615056;54;20134;-76
2023/02/02 05:42:58;;;;;;;17.07;8.93;;;7.20;99.90;;;;;;2614700;54;20665;-76
2023/02/02 05:48:49;;;;;;;14.03;7.17;;;7.30;99.90;;;;;;2614756;54;20278;-77
2023/02/02 05:54:36;;;;;;;20.60;8.63;;;7.30;99.90;;;;;;2614025;54;20402;-76
2023/02/02 06:00:24;;;;;;;23.07;9.97;;;7.30;99.90;;;;;;2614771;54;20795;-77
2023/02/02 06:06:13;;;;;;;25.40;9.03;;;7.30;99.90;;;;;;2614603;39;20554;-77
2023/02/02 06:12:00;;;;;;;32.53;10.47;;;7.30;99.90;;;;;;2615341;54;20394;-76
2023/02/02 06:17:48;;;;;;;18.80;8.57;;;7.40;99.90;;;;;;2615001;54;20633;-77
2023/02/02 06:23:36;;;;;;;22.10;9.13;;;7.40;99.90;;;;;;2614987;54;20246;-76
2023/02/02 06:29:24;;;;;;;29.13;11.10;;;7.40;99.90;;;;;;2616341;39;20516;-77
2023/02/02 06:35:11;;;;;;;27.60;13.00;;;7.40;99.90;;;;;;2615580;54;20147;-77
2023/02/02 06:41:00;;;;;;;26.13;10.73;;;7.40;99.90;;;;;;2615326;54;20154;-77
2023/02/02 06:46:48;;;;;;;21.93;11.00;;;7.40;99.90;;;;;;2615084;54;20374;-74
2023/02/02 06:52:36;;;;;;;22.30;9.40;;;7.40;99.90;;;;;;2615661;54;20187;-77
2023/02/02 06:58:24;;;;;;;24.00;11.10;;;7.40;99.90;;;;;;2615530;31;20603;-77
2023/02/02 07:04:11;;;;;;;25.33;10.43;;;7.50;99.90;;;;;;2612954;54;20142;-75
2023/02/02 07:06:38;;;;;;;17.43;10.10;;;7.40;99.90;;;;;;2613299;39;20895;-76
2023/02/02 07:09:04;;;;;;;17.53;9.50;;;7.50;99.90;;;;;;2612931;54;20155;-77
2023/02/02 07:14:52;;;;;;;23.60;11.50;;;7.40;99.90;;;;;;2613635;54;20278;-75
2023/02/02 07:20:40;;;;;;;20.73;11.60;;;7.40;99.90;;;;;;2615252;54;20413;-77
2023/02/02 07:23:06;;;;;;;31.97;11.50;;;7.40;99.90;;;;;;2612128;47;20414;-77
2023/02/02 07:25:31;;;;;;;26.73;10.80;;;7.50;99.90;;;;;;2614423;54;20158;-77
2023/02/02 07:31:22;;;;;;;28.83;10.17;;;7.50;99.90;;;;;;2615375;54;20207;-78
2023/02/02 07:37:09;;;;;;;20.93;11.30;;;7.50;99.90;;;;;;2615686;54;20952;-76
2023/02/02 07:42:59;;;;;;;26.77;10.73;;;7.40;99.90;;;;;;2614099;54;20122;-76
2023/02/02 07:48:47;;;;;;;30.83;12.53;;;7.40;99.90;;;;;;2615075;46;20448;-75
2023/02/02 07:54:35;;;;;;;33.17;9.83;;;7.40;99.90;;;;;;2615936;39;20486;-76
2023/02/02 08:00:23;;;;;;;31.73;14.70;;;7.40;99.90;;;;;;2613609;54;20206;-77
2023/02/02 08:03:48;;;;;;;35.73;12.40;;;7.40;99.90;;;;;;2613532;47;20427;-76
2023/02/02 08:09:36;;;;;;;32.13;12.17;;;7.40;99.90;;;;;;2614364;54;20383;-76
2023/02/02 08:15:24;;;;;;;23.07;10.87;;;7.40;99.90;;;;;;2614260;39;20764;-76
2023/02/02 08:21:12;;;;;;;28.10;13.40;;;7.40;99.90;;;;;;2612760;54;20130;-76
2023/02/02 08:26:59;;;;;;;26.07;11.03;;;7.40;99.90;;;;;;2614104;39;20610;-75
2023/02/02 08:32:47;;;;;;;20.47;11.50;;;7.40;99.90;;;;;;2615025;54;20138;-75
2023/02/02 08:38:35;;;;;;;25.10;14.30;;;7.40;99.90;;;;;;2615680;54;20177;-76
2023/02/02 08:44:24;;;;;;;26.20;12.13;;;7.40;99.90;;;;;;2616011;54;20146;-75
2023/02/02 08:50:12;;;;;;;25.10;15.00;;;7.40;99.90;;;;;;2615188;54;20410;-76
2023/02/02 08:56:02;;;;;;;21.17;13.60;;;7.40;99.90;;;;;;2613545;54;20130;-76
2023/02/02 08:59:17;;;;;;;24.37;12.70;;;7.40;99.90;;;;;;2615057;54;20407;-75
2023/02/02 09:01:42;;;;;;;23.83;13.57;;;7.40;99.90;;;;;;2613587;54;20516;-76
2023/02/02 09:07:31;;;;;;;30.93;13.73;;;7.30;99.90;;;;;;2614498;54;20158;-76
2023/02/02 09:13:18;;;;;;;27.90;13.90;;;7.40;99.90;;;;;;2615858;54;20412;-75
2023/02/02 09:19:16;;;;;;;23.73;15.10;;;7.30;99.90;;;;;;2615615;54;20139;-77
2023/02/02 09:25:04;;;;;;;28.60;17.70;;;7.30;99.90;;;;;;2615331;54;20391;-77
2023/02/02 09:30:51;;;;;;;30.73;18.60;;;7.40;99.90;;;;;;2615250;54;20415;-76
2023/02/02 09:36:39;;;;;;;25.33;15.17;;;7.40;99.90;;;;;;2612166;54;20160;-77
2023/02/02 09:52:39;;;;;;;21.93;15.73;;;7.40;99.90;;;;;;2612638;54;20970;-75
2023/02/02 10:02:21;;;;;;;25.53;15.47;;;7.40;99.90;;;;;;2613191;54;20450;-76
2023/02/02 10:12:03;;;;;;;26.80;15.70;;;7.50;99.90;;;;;;2613409;54;20415;-76
2023/02/02 10:28:17;;;;;;;34.33;20.83;;;7.40;99.90;;;;;;2611377;54;20972;-77
2023/02/02 10:47:26;;;;;;;26.93;15.03;;;7.60;99.90;;;;;;2612026;54;20549;-76
2023/02/02 10:53:15;;;;;;;25.93;14.83;;;7.70;99.90;;;;;;2613524;54;20418;-77
2023/02/02 10:59:16;;;;;;;41.30;11.73;;;7.70;99.90;;;;;;2614156;54;20982;-77
2023/02/02 11:17:34;;;;;;;25.27;12.47;;;7.80;99.90;;;;;;2616088;54;20421;-76
2023/02/02 11:23:25;;;;;;;23.60;11.87;;;7.80;99.90;;;;;;2615778;54;20157;-77
2023/02/02 11:29:23;;;;;;;24.00;10.60;;;7.90;99.90;;;;;;2615650;54;20390;-78
2023/02/02 11:35:25;;;;;;;34.10;11.93;;;7.80;99.90;;;;;;2615526;54;20387;-79
2023/02/02 11:41:15;;;;;;;24.80;11.93;;;8.00;99.90;;;;;;2615928;54;20391;-77
2023/02/02 11:47:04;;;;;;;15.40;11.37;;;8.00;99.90;;;;;;2616196;54;20455;-77
2023/02/02 11:52:52;;;;;;;23.57;12.83;;;8.00;99.90;;;;;;2615701;54;20476;-77
2023/02/02 11:58:55;;;;;;;23.20;12.53;;;8.10;99.90;;;;;;2616023;54;20964;-77
2023/02/02 12:04:43;;;;;;;33.90;13.00;;;8.00;99.90;;;;;;2615489;54;20367;-77
2023/02/02 12:07:24;;;;;;;21.70;11.93;;;8.10;99.90;;;;;;2613850;54;20401;-77
2023/02/02 12:09:50;;;;;;;28.30;14.50;;;8.10;99.90;;;;;;2614860;46;20173;-75
2023/02/02 12:16:12;;;;;;;28.33;14.57;;;8.10;99.90;;;;;;2613685;39;20730;-75
2023/02/02 12:29:11;;;;;;;26.50;12.03;;;8.10;99.90;;;;;;2614337;54;20961;-76
2023/02/02 12:35:37;;;;;;;25.57;12.77;;;8.10;99.90;;;;;;2615133;54;20367;-76
2023/02/02 12:42:02;;;;;;;25.70;13.90;;;8.10;99.90;;;;;;2614646;54;20374;-76
2023/02/02 13:23:54;;;;;;;29.63;14.80;;;8.10;99.90;;;;;;2614574;39;20779;-76
2023/02/02 13:49:01;;;;;;;27.57;10.63;;;8.10;99.90;;;;;;2613305;39;20814;-76
2023/02/02 14:04:41;;;;;;;21.50;11.77;;;8.00;99.90;;;;;;2612873;54;20411;-77
2023/02/02 14:10:35;;;;;;;18.70;8.53;;;8.00;99.90;;;;;;2613530;54;20135;-77
2023/02/02 14:29:59;;;;;;;23.53;8.93;;;7.90;99.90;;;;;;2615898;39;20867;-76
2023/02/02 14:35:46;;;;;;;18.27;9.60;;;7.80;99.90;;;;;;2612587;54;20423;-76
2023/02/02 14:48:14;;;;;;;24.47;11.40;;;7.60;99.90;;;;;;2613645;54;20451;-76
2023/02/02 14:54:07;;;;;;;27.17;12.93;;;7.60;99.90;;;;;;2616008;54;20386;-79
2023/02/02 14:59:56;;;;;;;30.20;14.13;;;7.60;99.90;;;;;;2614583;54;20410;-78
2023/02/02 15:05:45;;;;;;;34.30;8.93;;;7.70;99.90;;;;;;2613648;54;20494;-78
2023/02/02 15:09:09;;;;;;;18.00;11.53;;;7.70;99.90;;;;;;2612958;54;20428;-77
2023/02/02 15:21:39;;;;;;;22.53;10.47;;;7.70;99.90;;;;;;2614062;54;20945;-76
2023/02/02 15:27:27;;;;;;;14.03;11.70;;;7.60;99.90;;;;;;2615596;54;20394;-76
2023/02/02 15:44:18;;;;;;;27.23;13.40;;;7.60;99.90;;;;;;2615706;54;20431;-77
2023/02/02 15:56:51;;;;;;;31.00;16.53;;;7.60;99.90;;;;;;2614124;54;20411;-78
2023/02/02 16:12:43;;;;;;;30.93;18.70;;;7.60;99.90;;;;;;2611618;54;20387;-77
2023/02/02 16:18:30;;;;;;;34.87;18.20;;;7.60;99.90;;;;;;2611131;54;20137;-76
2023/02/02 16:27:45;;;;;;;30.33;16.73;;;7.60;99.90;;;;;;2614741;54;20391;-78
2023/02/02 16:33:34;;;;;;;26.80;15.20;;;7.60;99.90;;;;;;2615281;54;20402;-77
2023/02/02 16:39:23;;;;;;;25.53;16.60;;;7.50;99.90;;;;;;2615219;54;20410;-78
2023/02/02 16:45:34;;;;;;;26.27;16.70;;;7.60;99.90;;;;;;2613961;39;21040;-77
2023/02/02 16:51:25;;;;;;;37.80;18.73;;;7.60;99.90;;;;;;2612909;54;21060;-77
2023/02/02 17:03:54;;;;;;;22.03;15.20;;;7.60;99.90;;;;;;2615169;39;20754;-76
2023/02/02 17:09:44;;;;;;;22.70;14.03;;;7.60;99.90;;;;;;2613543;54;20384;-75
2023/02/02 17:15:34;;;;;;;26.70;16.87;;;7.70;99.90;;;;;;2614345;54;20379;-76
2023/02/02 17:21:24;;;;;;;22.80;15.03;;;7.70;99.90;;;;;;2614554;54;20976;-75
2023/02/02 17:33:42;;;;;;;25.33;16.57;;;7.70;99.90;;;;;;2614923;54;20981;-77
2023/02/02 17:39:30;;;;;;;34.47;15.63;;;7.80;99.90;;;;;;2615052;54;20158;-76
2023/02/02 17:52:06;;;;;;;23.40;16.30;;;7.70;99.90;;;;;;2611945;54;20399;-76
2023/02/02 17:57:53;;;;;;;23.00;16.23;;;7.70;99.90;;;;;;2610974;54;20271;-77
2023/02/02 18:03:43;;;;;;;19.93;14.57;;;7.70;99.90;;;;;;2611865;54;20218;-77
2023/02/02 18:12:52;;;;;;;20.17;13.43;;;7.70;99.90;;;;;;2613136;54;21067;-77
2023/02/02 18:18:39;;;;;;;25.47;16.60;;;7.70;99.90;;;;;;2611165;54;20203;-77
2023/02/02 18:24:26;;;;;;;19.90;13.40;;;7.70;99.90;;;;;;2614453;54;20402;-76
2023/02/02 18:30:14;;;;;;;16.93;11.53;;;7.70;99.90;;;;;;2615510;54;20973;-75
2023/02/02 18:33:18;;;;;;;20.13;11.80;;;7.70;99.90;;;;;;2615318;47;20903;-77
2023/02/02 18:35:45;;;;;;;14.47;9.80;;;7.70;99.90;;;;;;2613875;47;20478;-76
2023/02/02 18:41:33;;;;;;;13.93;10.50;;;7.70;99.90;;;;;;2614599;54;20383;-77
2023/02/02 18:47:21;;;;;;;20.90;14.43;;;7.80;99.90;;;;;;2614792;54;21182;-76
2023/02/02 18:53:08;;;;;;;23.23;13.53;;;7.80;99.90;;;;;;2615661;54;20625;-77
2023/02/02 18:55:36;;;;;;;20.93;14.83;;;7.70;99.90;;;;;;2614335;54;20410;-77
2023/02/02 18:58:02;;;;;;;20.97;15.00;;;7.70;99.90;;;;;;2615608;47;20158;-75
2023/02/02 19:03:52;;;;;;;25.70;14.73;;;7.80;99.90;;;;;;2615360;54;20157;-77
2023/02/02 19:09:40;;;;;;;27.43;17.80;;;7.80;99.90;;;;;;2613814;54;20439;-77
2023/02/02 19:15:27;;;;;;;32.03;21.17;;;7.90;99.90;;;;;;2614741;54;20271;-77
2023/02/02 19:21:15;;;;;;;32.00;21.07;;;7.90;99.90;;;;;;2614935;54;20570;-78
2023/02/02 19:33:45;;;;;;;37.50;25.50;;;7.90;99.90;;;;;;2614671;54;20398;-77
2023/02/02 19:39:34;;;;;;;30.10;17.77;;;8.00;99.90;;;;;;2614370;39;20791;-77
2023/02/02 19:45:31;;;;;;;38.33;24.37;;;8.00;99.90;;;;;;2615088;54;20380;-77
2023/02/02 20:04:23;;;;;;;33.37;25.23;;;8.10;99.90;;;;;;2613565;54;20432;-76
2023/02/02 20:26:37;;;;;;;37.70;22.77;;;8.10;99.90;;;;;;2613905;54;21019;-76
2023/02/02 20:38:54;;;;;;;37.43;24.13;;;8.10;99.90;;;;;;2616011;54;20415;-77
2023/02/02 20:44:42;;;;;;;48.50;29.40;;;8.00;99.90;;;;;;2612942;54;20395;-76
2023/02/02 20:50:29;;;;;;;43.00;22.90;;;8.10;99.90;;;;;;2614436;54;20455;-77
2023/02/02 20:56:16;;;;;;;33.57;23.03;;;8.10;99.90;;;;;;2615034;54;20262;-76
2023/02/02 20:59:37;;;;;;;46.23;24.27;;;8.10;99.90;;;;;;2614492;39;20897;-78
2023/02/02 21:05:24;;;;;;;33.77;23.60;;;8.10;99.90;;;;;;2614236;54;21196;-77
2023/02/02 21:11:12;;;;;;;30.70;20.63;;;8.10;99.90;;;;;;2614261;54;20170;-77
2023/02/02 21:17:00;;;;;;;34.17;22.50;;;8.20;99.90;;;;;;2615258;46;20141;-76
2023/02/02 21:22:47;;;;;;;35.23;19.10;;;8.20;99.90;;;;;;2615324;54;20131;-78
2023/02/02 21:28:35;;;;;;;36.17;21.87;;;8.30;99.90;;;;;;2615285;54;20134;-78
2023/02/02 21:34:23;;;;;;;36.30;20.70;;;8.30;99.90;;;;;;2615348;54;20157;-78
2023/02/02 21:40:16;;;;;;;27.17;18.60;;;8.30;99.90;;;;;;2615312;54;20134;-77
2023/02/02 21:46:10;;;;;;;30.83;19.60;;;8.40;99.90;;;;;;2616541;54;20434;-79
2023/02/02 21:52:01;;;;;;;36.80;18.93;;;8.40;99.90;;;;;;2614790;54;20430;-78
2023/02/02 21:57:49;;;;;;;34.30;18.23;;;8.40;99.90;;;;;;2616431;54;20414;-78
2023/02/02 22:03:37;;;;;;;26.30;16.20;;;8.40;99.90;;;;;;2615788;54;20122;-79
2023/02/02 22:13:34;;;;;;;28.77;18.07;;;8.40;99.90;;;;;;2615858;54;20922;-79
2023/02/02 22:36:34;;;;;;;27.60;16.80;;;8.60;99.90;;;;;;2614075;54;20383;-76
2023/02/02 22:42:22;;;;;;;25.03;15.87;;;8.70;99.90;;;;;;2612785;54;20131;-76
2023/02/02 22:48:10;;;;;;;31.33;19.83;;;8.70;99.90;;;;;;2613956;54;20190;-77
2023/02/02 22:57:21;;;;;;;27.80;17.40;;;8.80;99.90;;;;;;2613254;54;20512;-78
2023/02/02 23:03:08;;;;;;;17.20;12.43;;;8.80;99.90;;;;;;2614199;54;20419;-78
2023/02/02 23:08:55;;;;;;;23.90;12.13;;;8.80;99.90;;;;;;2615383;54;20170;-77
2023/02/02 23:14:43;;;;;;;23.23;15.77;;;8.90;99.90;;;;;;2616179;54;20122;-77
2023/02/02 23:20:31;;;;;;;28.40;19.10;;;9.00;99.90;;;;;;2615850;54;20190;-78
2023/02/02 23:26:19;;;;;;;18.90;14.83;;;9.00;99.90;;;;;;2616363;39;20773;-77
2023/02/02 23:32:08;;;;;;;27.07;17.23;;;8.90;99.90;;;;;;2615401;54;20391;-78
2023/02/02 23:37:55;;;;;;;18.40;13.57;;;8.90;99.90;;;;;;2615025;54;20407;-78
2023/02/02 23:43:43;;;;;;;22.87;15.00;;;9.00;99.90;;;;;;2615586;54;20664;-79
2023/02/02 23:49:32;;;;;;;18.73;12.57;;;9.10;99.90;;;;;;2616140;54;20170;-78
2023/02/02 23:55:19;;;;;;;23.50;16.20;;;9.00;99.90;;;;;;2615609;54;20387;-78
